Terminal Aerodrome Forecast
Issued by NWS

Home | Current Version | Previous Version | Text Only | Print | Product List | Glossary On
Versions: 1 2 3 4 5 6 7 8 9 10 11 12 13 14 15 16 17 18 19 20 21 22 23 24 25
566
FTAK31 PAJN 110304 AAB
TAFAKT
TAF AMD
PAKT 110304Z 1103/1124 14014G24KT 6SM -RA BR BKN015 BKN025 OVC035
     FM110600 14015G25KT 6SM -SHRA SCT020 OVC030 WS020/16035KT
     FM111200 16015G25KT P6SM VCSH SCT025 BKN040 BKN060
      AMD LTD TO CLD VIS AND WIND 1107/1112=

USA.gov is the U.S. government's official web portal to all federal, state and local government web resources and services.